sensor_id;sensor_type;location;lat;lon;timestamp;pressure;altitude;pressure_sealevel;temperature;humidity
57628;BME280;43451;49.060;10.616;2023-02-28T00:01:21;97440.34;;;-2.87;89.33
57628;BME280;43451;49.060;10.616;2023-02-28T00:03:47;97441.44;;;-2.88;90.20
57628;BME280;43451;49.060;10.616;2023-02-28T00:06:13;97428.91;;;-2.88;90.21
57628;BME280;43451;49.060;10.616;2023-02-28T00:08:39;97432.31;;;-2.82;90.31
57628;BME280;43451;49.060;10.616;2023-02-28T00:11:10;97434.81;;;-2.91;90.73
57628;BME280;43451;49.060;10.616;2023-02-28T00:13:37;97430.84;;;-2.93;91.18
57628;BME280;43451;49.060;10.616;2023-02-28T00:16:09;97435.66;;;-2.95;91.41
57628;BME280;43451;49.060;10.616;2023-02-28T00:18:35;97435.59;;;-2.90;91.83
57628;BME280;43451;49.060;10.616;2023-02-28T00:21:00;97427.63;;;-2.90;91.68
57628;BME280;43451;49.060;10.616;2023-02-28T00:23:26;97430.84;;;-2.93;92.14
57628;BME280;43451;49.060;10.616;2023-02-28T00:25:53;97433.22;;;-2.92;92.08
57628;BME280;43451;49.060;10.616;2023-02-28T00:28:19;97419.28;;;-2.84;91.76
57628;BME280;43451;49.060;10.616;2023-02-28T00:30:44;97428.34;;;-2.85;92.21
57628;BME280;43451;49.060;10.616;2023-02-28T00:33:10;97430.28;;;-2.90;92.83
57628;BME280;43451;49.060;10.616;2023-02-28T00:35:35;97429.34;;;-2.81;92.58
57628;BME280;43451;49.060;10.616;2023-02-28T00:38:01;97428.91;;;-2.88;92.84
57628;BME280;43451;49.060;10.616;2023-02-28T00:40:28;97423.19;;;-2.95;93.59
57628;BME280;43451;49.060;10.616;2023-02-28T00:42:53;97422.25;;;-2.85;93.29
57628;BME280;43451;49.060;10.616;2023-02-28T00:45:19;97412.63;;;-2.81;93.67
57628;BME280;43451;49.060;10.616;2023-02-28T00:47:44;97418.19;;;-2.83;93.86
57628;BME280;43451;49.060;10.616;2023-02-28T00:50:12;97421.72;;;-2.87;94.24
57628;BME280;43451;49.060;10.616;2023-02-28T00:52:38;97416.63;;;-2.84;94.33
57628;BME280;43451;49.060;10.616;2023-02-28T00:55:04;97420.28;;;-2.80;94.75
57628;BME280;43451;49.060;10.616;2023-02-28T00:57:29;97416.69;;;-2.89;94.96
57628;BME280;43451;49.060;10.616;2023-02-28T00:59:55;97410.81;;;-2.86;94.58
57628;BME280;43451;49.060;10.616;2023-02-28T01:02:21;97415.06;;;-2.85;94.87
57628;BME280;43451;49.060;10.616;2023-02-28T01:04:47;97415.53;;;-2.83;94.67
57628;BME280;43451;49.060;10.616;2023-02-28T01:07:13;97410.75;;;-2.81;94.75
57628;BME280;43451;49.060;10.616;2023-02-28T01:09:40;97420.66;;;-2.86;94.83
57628;BME280;43451;49.060;10.616;2023-02-28T01:12:06;97411.94;;;-2.92;95.13
57628;BME280;43451;49.060;10.616;2023-02-28T01:14:32;97416.78;;;-2.94;95.05
57628;BME280;43451;49.060;10.616;2023-02-28T01:16:58;97416.84;;;-2.99;94.86
57628;BME280;43451;49.060;10.616;2023-02-28T01:19:23;97415.69;;;-2.93;95.26
57628;BME280;43451;49.060;10.616;2023-02-28T01:21:49;97417.88;;;-2.95;95.42
57628;BME280;43451;49.060;10.616;2023-02-28T01:24:14;97411.09;;;-3.06;95.47
57628;BME280;43451;49.060;10.616;2023-02-28T01:26:39;97413.69;;;-3.01;96.02
57628;BME280;43451;49.060;10.616;2023-02-28T01:29:05;97420.94;;;-3.07;95.65
57628;BME280;43451;49.060;10.616;2023-02-28T01:31:30;97414.25;;;-3.04;96.29
57628;BME280;43451;49.060;10.616;2023-02-28T01:33:56;97403.63;;;-3.04;96.30
57628;BME280;43451;49.060;10.616;2023-02-28T01:36:23;97403.06;;;-3.01;95.61
57628;BME280;43451;49.060;10.616;2023-02-28T01:38:49;97407.91;;;-3.08;95.78
57628;BME280;43451;49.060;10.616;2023-02-28T01:46:11;97391.03;;;-3.17;96.74
57628;BME280;43451;49.060;10.616;2023-02-28T01:48:40;97409.06;;;-3.14;96.50
57628;BME280;43451;49.060;10.616;2023-02-28T01:51:14;97411.84;;;-3.24;96.92
57628;BME280;43451;49.060;10.616;2023-02-28T01:53:51;97409.53;;;-3.31;96.51
57628;BME280;43451;49.060;10.616;2023-02-28T01:56:21;97396.13;;;-3.21;96.13
57628;BME280;43451;49.060;10.616;2023-02-28T01:58:49;97404.22;;;-3.31;96.51
57628;BME280;43451;49.060;10.616;2023-02-28T02:01:16;97402.34;;;-3.31;96.87
57628;BME280;43451;49.060;10.616;2023-02-28T02:03:51;97393.88;;;-3.33;96.57
57628;BME280;43451;49.060;10.616;2023-02-28T02:06:34;97396.31;;;-3.36;96.93
57628;BME280;43451;49.060;10.616;2023-02-28T02:09:02;97393.44;;;-3.40;97.02
57628;BME280;43451;49.060;10.616;2023-02-28T02:11:28;97389.75;;;-3.44;96.91
57628;BME280;43451;49.060;10.616;2023-02-28T02:26:11;97384.91;;;-3.61;98.96
57628;BME280;43451;49.060;10.616;2023-02-28T02:28:22;97381.97;;;-3.59;98.80
57628;BME280;43451;49.060;10.616;2023-02-28T02:36:48;97395.31;;;-3.64;99.16
57628;BME280;43451;49.060;10.616;2023-02-28T02:42:24;97390.91;;;-3.74;99.42
57628;BME280;43451;49.060;10.616;2023-02-28T02:45:01;97392.25;;;-3.77;100.00
57628;BME280;43451;49.060;10.616;2023-02-28T02:47:30;97385.34;;;-3.78;100.00
57628;BME280;43451;49.060;10.616;2023-02-28T02:49:59;97389.53;;;-3.71;100.00
57628;BME280;43451;49.060;10.616;2023-02-28T02:52:34;97391.34;;;-3.67;100.00
57628;BME280;43451;49.060;10.616;2023-02-28T02:55:02;97389.53;;;-3.71;100.00
57628;BME280;43451;49.060;10.616;2023-02-28T02:57:51;97386.09;;;-3.72;100.00
57628;BME280;43451;49.060;10.616;2023-02-28T03:00:22;97387.22;;;-3.78;100.00
57628;BME280;43451;49.060;10.616;2023-02-28T03:02:49;97392.19;;;-3.71;100.00
57628;BME280;43451;49.060;10.616;2023-02-28T03:05:21;97397.00;;;-3.74;100.00
57628;BME280;43451;49.060;10.616;2023-02-28T03:07:48;97390.09;;;-3.75;100.00
57628;BME280;43451;49.060;10.616;2023-02-28T03:10:31;97391.19;;;-3.76;100.00
57628;BME280;43451;49.060;10.616;2023-02-28T03:16:22;97394.97;;;-3.82;100.00
57628;BME280;43451;49.060;10.616;2023-02-28T03:21:48;97395.50;;;-3.85;100.00
57628;BME280;43451;49.060;10.616;2023-02-28T03:26:52;97390.53;;;-3.91;100.00
57628;BME280;43451;49.060;10.616;2023-02-28T03:29:35;97397.41;;;-3.90;100.00
57628;BME280;43451;49.060;10.616;2023-02-28T03:32:14;97399.53;;;-3.87;100.00
57628;BME280;43451;49.060;10.616;2023-02-28T03:34:51;97386.59;;;-3.94;100.00
57628;BME280;43451;49.060;10.616;2023-02-28T03:37:22;97387.06;;;-3.87;100.00
57628;BME280;43451;49.060;10.616;2023-02-28T03:39:56;97384.50;;;-3.97;100.00
57628;BME280;43451;49.060;10.616;2023-02-28T03:42:27;97393.78;;;-4.00;100.00
57628;BME280;43451;49.060;10.616;2023-02-28T03:45:02;97385.84;;;-4.00;100.00
57628;BME280;43451;49.060;10.616;2023-02-28T03:50:01;97386.47;;;-4.08;100.00
57628;BME280;43451;49.060;10.616;2023-02-28T03:52:33;97397.31;;;-4.04;100.00
57628;BME280;43451;49.060;10.616;2023-02-28T03:55:03;97391.44;;;-4.01;100.00
57628;BME280;43451;49.060;10.616;2023-02-28T03:58:24;97396.88;;;-3.87;100.00
57628;BME280;43451;49.060;10.616;2023-02-28T04:00:55;97398.50;;;-3.91;100.00
57628;BME280;43451;49.060;10.616;2023-02-28T04:03:22;97403.84;;;-3.97;100.00
57628;BME280;43451;49.060;10.616;2023-02-28T04:05:55;97399.34;;;-3.96;100.00
57628;BME280;43451;49.060;10.616;2023-02-28T04:08:22;97403.13;;;-4.02;100.00
57628;BME280;43451;49.060;10.616;2023-02-28T04:10:55;97407.88;;;-3.99;100.00
57628;BME280;43451;49.060;10.616;2023-02-28T04:13:22;97401.28;;;-4.07;100.00
57628;BME280;43451;49.060;10.616;2023-02-28T04:15:47;97400.16;;;-3.95;100.00
57628;BME280;43451;49.060;10.616;2023-02-28T04:18:12;97412.66;;;-4.01;100.00
57628;BME280;43451;49.060;10.616;2023-02-28T04:20:38;97413.22;;;-4.04;100.00
57628;BME280;43451;49.060;10.616;2023-02-28T04:23:03;97408.09;;;-3.95;100.00
57628;BME280;43451;49.060;10.616;2023-02-28T04:25:29;97406.78;;;-3.98;100.00
57628;BME280;43451;49.060;10.616;2023-02-28T04:27:54;97398.88;;;-4.03;100.00
57628;BME280;43451;49.060;10.616;2023-02-28T04:30:20;97407.34;;;-4.01;100.00
57628;BME280;43451;49.060;10.616;2023-02-28T04:32:46;97402.06;;;-4.01;100.00
57628;BME280;43451;49.060;10.616;2023-02-28T04:35:12;97404.19;;;-4.03;100.00
57628;BME280;43451;49.060;10.616;2023-02-28T04:37:37;97404.66;;;-3.96;100.00
57628;BME280;43451;49.060;10.616;2023-02-28T04:40:03;97398.66;;;-4.07;100.00
57628;BME280;43451;49.060;10.616;2023-02-28T04:42:29;97405.25;;;-4.04;100.00
57628;BME280;43451;49.060;10.616;2023-02-28T04:45:03;97403.69;;;-4.05;100.00
57628;BME280;43451;49.060;10.616;2023-02-28T04:47:29;97400.47;;;-4.02;100.00
57628;BME280;43451;49.060;10.616;2023-02-28T04:49:55;97401.53;;;-4.03;100.00
57628;BME280;43451;49.060;10.616;2023-02-28T04:52:20;97406.84;;;-4.03;100.00
57628;BME280;43451;49.060;10.616;2023-02-28T04:54:46;97398.09;;;-4.04;100.00
57628;BME280;43451;49.060;10.616;2023-02-28T04:57:11;97400.06;;;-4.14;100.00
57628;BME280;43451;49.060;10.616;2023-02-28T04:59:37;97409.56;;;-4.08;100.00
57628;BME280;43451;49.060;10.616;2023-02-28T05:02:02;97407.88;;;-3.99;100.00
57628;BME280;43451;49.060;10.616;2023-02-28T05:04:33;97413.22;;;-4.04;100.00
57628;BME280;43451;49.060;10.616;2023-02-28T05:07:00;97409.22;;;-4.02;100.00
57628;BME280;43451;49.060;10.616;2023-02-28T05:09:25;97414.00;;;-4.04;100.00
57628;BME280;43451;49.060;10.616;2023-02-28T05:11:51;97412.63;;;-3.96;100.00
57628;BME280;43451;49.060;10.616;2023-02-28T05:14:16;97411.59;;;-4.00;100.00
57628;BME280;43451;49.060;10.616;2023-02-28T05:16:42;97408.69;;;-4.04;100.00
57628;BME280;43451;49.060;10.616;2023-02-28T05:19:07;97411.66;;;-4.05;100.00
57628;BME280;43451;49.060;10.616;2023-02-28T05:21:41;97415.13;;;-4.10;100.00
57628;BME280;43451;49.060;10.616;2023-02-28T05:24:13;97416.72;;;-4.09;100.00
57628;BME280;43451;49.060;10.616;2023-02-28T05:26:40;97420.59;;;-3.96;100.00
57628;BME280;43451;49.060;10.616;2023-02-28T05:29:06;97415.22;;;-3.91;100.00
57628;BME280;43451;49.060;10.616;2023-02-28T05:31:32;97414.75;;;-3.98;100.00
57628;BME280;43451;49.060;10.616;2023-02-28T05:33:58;97423.72;;;-3.94;100.00
57628;BME280;43451;49.060;10.616;2023-02-28T05:36:23;97422.72;;;-3.98;100.00
57628;BME280;43451;49.060;10.616;2023-02-28T05:38:50;97418.25;;;-4.03;100.00
57628;BME280;43451;49.060;10.616;2023-02-28T05:41:17;97420.66;;;-4.06;100.00
57628;BME280;43451;49.060;10.616;2023-02-28T05:43:44;97414.78;;;-4.03;100.00
57628;BME280;43451;49.060;10.616;2023-02-28T05:46:11;97410.34;;;-4.08;100.00
57628;BME280;43451;49.060;10.616;2023-02-28T05:48:37;97408.94;;;-4.00;100.00
57628;BME280;43451;49.060;10.616;2023-02-28T05:51:04;97410.03;;;-4.06;100.00
57628;BME280;43451;49.060;10.616;2023-02-28T05:53:30;97415.59;;;-4.03;100.00
57628;BME280;43451;49.060;10.616;2023-02-28T05:55:56;97404.75;;;-4.06;100.00
57628;BME280;43451;49.060;10.616;2023-02-28T05:58:22;97414.00;;;-4.04;100.00
57628;BME280;43451;49.060;10.616;2023-02-28T06:00:47;97418.00;;;-4.06;100.00
57628;BME280;43451;49.060;10.616;2023-02-28T06:03:13;97414.31;;;-4.05;100.00
57628;BME280;43451;49.060;10.616;2023-02-28T06:05:38;97418.56;;;-4.09;100.00
57628;BME280;43451;49.060;10.616;2023-02-28T06:08:04;97421.47;;;-4.06;100.00
57628;BME280;43451;49.060;10.616;2023-02-28T06:10:32;97418.19;;;-3.98;100.00
57628;BME280;43451;49.060;10.616;2023-02-28T06:13:03;97423.31;;;-4.06;100.00
57628;BME280;43451;49.060;10.616;2023-02-28T06:15:29;97433.38;;;-4.03;100.00
57628;BME280;43451;49.060;10.616;2023-02-28T06:17:55;97432.56;;;-4.04;100.00
57628;BME280;43451;49.060;10.616;2023-02-28T06:20:24;97433.88;;;-4.01;100.00
57628;BME280;43451;49.060;10.616;2023-02-28T06:22:51;97425.91;;;-3.96;100.00
57628;BME280;43451;49.060;10.616;2023-02-28T06:25:17;97433.22;;;-3.88;100.00
57628;BME280;43451;49.060;10.616;2023-02-28T06:27:43;97432.31;;;-4.02;100.00
57628;BME280;43451;49.060;10.616;2023-02-28T06:30:10;97436.03;;;-4.03;100.00
57628;BME280;43451;49.060;10.616;2023-02-28T06:32:35;97440.69;;;-3.90;100.00
57628;BME280;43451;49.060;10.616;2023-02-28T06:35:02;97436.44;;;-3.91;100.00
57628;BME280;43451;49.060;10.616;2023-02-28T06:37:27;97444.63;;;-3.87;100.00
57628;BME280;43451;49.060;10.616;2023-02-28T06:39:54;97430.13;;;-3.95;100.00
57628;BME280;43451;49.060;10.616;2023-02-28T06:42:21;97436.13;;;-3.84;100.00
57628;BME280;43451;49.060;10.616;2023-02-28T06:44:48;97442.22;;;-3.84;100.00
57628;BME280;43451;49.060;10.616;2023-02-28T06:47:13;97436.31;;;-3.76;100.00
57628;BME280;43451;49.060;10.616;2023-02-28T06:49:39;97441.38;;;-3.79;100.00
57628;BME280;43451;49.060;10.616;2023-02-28T06:52:05;97444.16;;;-3.65;100.00
57628;BME280;43451;49.060;10.616;2023-02-28T06:54:30;97446.44;;;-3.54;100.00
57628;BME280;43451;49.060;10.616;2023-02-28T06:56:57;97450.09;;;-3.50;100.00
57628;BME280;43451;49.060;10.616;2023-02-28T06:59:23;97445.91;;;-3.56;100.00
57628;BME280;43451;49.060;10.616;2023-02-28T07:01:49;97453.28;;;-3.47;100.00
57628;BME280;43451;49.060;10.616;2023-02-28T07:04:14;97455.97;;;-3.53;100.00
57628;BME280;43451;49.060;10.616;2023-02-28T07:06:40;97453.28;;;-3.47;100.00
57628;BME280;43451;49.060;10.616;2023-02-28T07:09:05;97464.69;;;-3.47;100.00
57628;BME280;43451;49.060;10.616;2023-02-28T07:11:31;97458.28;;;-3.46;100.00
57628;BME280;43451;49.060;10.616;2023-02-28T07:13:57;97457.72;;;-3.43;100.00
57628;BME280;43451;49.060;10.616;2023-02-28T07:16:24;97466.09;;;-3.31;100.00
57628;BME280;43451;49.060;10.616;2023-02-28T07:18:52;97466.06;;;-3.25;100.00
57628;BME280;43451;49.060;10.616;2023-02-28T07:21:17;97468.19;;;-3.28;100.00
57628;BME280;43451;49.060;10.616;2023-02-28T07:23:43;97469.47;;;-3.20;100.00
57628;BME280;43451;49.060;10.616;2023-02-28T07:26:14;97471.81;;;-3.18;100.00
57628;BME280;43451;49.060;10.616;2023-02-28T07:28:45;97471.28;;;-3.20;100.00
57628;BME280;43451;49.060;10.616;2023-02-28T07:31:12;97476.22;;;-3.09;100.00
57628;BME280;43451;49.060;10.616;2023-02-28T07:33:39;97478.03;;;-3.04;100.00
57628;BME280;43451;49.060;10.616;2023-02-28T07:36:10;97486.31;;;-2.87;100.00
57628;BME280;43451;49.060;10.616;2023-02-28T07:38:43;97473.03;;;-2.87;100.00
57628;BME280;43451;49.060;10.616;2023-02-28T07:41:09;97473.81;;;-2.86;99.75
57628;BME280;43451;49.060;10.616;2023-02-28T07:43:35;97475.28;;;-2.75;99.14
57628;BME280;43451;49.060;10.616;2023-02-28T07:46:05;97469.09;;;-2.51;98.56
57628;BME280;43451;49.060;10.616;2023-02-28T07:48:31;97480.47;;;-2.27;97.30
57628;BME280;43451;49.060;10.616;2023-02-28T07:50:57;97478.78;;;-2.04;96.15
57628;BME280;43451;49.060;10.616;2023-02-28T07:53:23;97481.00;;;-1.78;92.61
57628;BME280;43451;49.060;10.616;2023-02-28T07:55:49;97477.50;;;-1.60;91.46
57628;BME280;43451;49.060;10.616;2023-02-28T07:58:14;97486.03;;;-1.30;89.98
57628;BME280;43451;49.060;10.616;2023-02-28T08:00:40;97483.50;;;-1.08;87.61
57628;BME280;43451;49.060;10.616;2023-02-28T08:03:05;97473.44;;;-1.11;86.28
57628;BME280;43451;49.060;10.616;2023-02-28T08:05:30;97471.81;;;-1.12;87.42
57628;BME280;43451;49.060;10.616;2023-02-28T08:07:57;97480.34;;;-1.10;86.17
57628;BME280;43451;49.060;10.616;2023-02-28T08:10:22;97488.41;;;-1.29;87.03
57628;BME280;43451;49.060;10.616;2023-02-28T08:12:49;97486.06;;;-1.17;86.15
57628;BME280;43451;49.060;10.616;2023-02-28T08:15:15;97486.44;;;-1.23;86.08
57628;BME280;43451;49.060;10.616;2023-02-28T08:17:40;97492.25;;;-1.21;86.19
57628;BME280;43451;49.060;10.616;2023-02-28T08:20:06;97491.88;;;-1.14;86.64
57628;BME280;43451;49.060;10.616;2023-02-28T08:22:32;97490.41;;;-1.07;84.64
57628;BME280;43451;49.060;10.616;2023-02-28T08:24:57;97491.19;;;-1.20;85.19
57628;BME280;43451;49.060;10.616;2023-02-28T08:27:23;97490.22;;;-1.10;84.79
57628;BME280;43451;49.060;10.616;2023-02-28T08:29:48;97482.69;;;-1.08;83.72
57628;BME280;43451;49.060;10.616;2023-02-28T08:32:14;97480.72;;;-1.03;82.56
57628;BME280;43451;49.060;10.616;2023-02-28T08:34:39;97486.16;;;-0.94;83.40
57628;BME280;43451;49.060;10.616;2023-02-28T08:37:05;97483.09;;;-0.87;82.74
57628;BME280;43451;49.060;10.616;2023-02-28T08:39:34;97482.78;;;-0.86;84.24
57628;BME280;43451;49.060;10.616;2023-02-28T08:42:00;97490.19;;;-0.69;83.05
57628;BME280;43451;49.060;10.616;2023-02-28T08:44:25;97486.50;;;-0.59;82.83
57628;BME280;43451;49.060;10.616;2023-02-28T08:46:52;97478.50;;;-0.59;80.26
57628;BME280;43451;49.060;10.616;2023-02-28T08:49:18;97475.91;;;-0.51;79.36
57628;BME280;43451;49.060;10.616;2023-02-28T08:51:44;97493.38;;;-0.44;78.90
57628;BME280;43451;49.060;10.616;2023-02-28T08:54:10;97482.97;;;-0.32;79.10
57628;BME280;43451;49.060;10.616;2023-02-28T08:56:42;97480.09;;;-0.22;77.71
57628;BME280;43451;49.060;10.616;2023-02-28T08:59:09;97480.44;;;-0.37;77.43
57628;BME280;43451;49.060;10.616;2023-02-28T09:01:34;97482.38;;;-0.29;77.91
57628;BME280;43451;49.060;10.616;2023-02-28T09:04:01;97477.19;;;-0.12;77.55
57628;BME280;43451;49.060;10.616;2023-02-28T09:06:28;97478.25;;;-0.13;77.43
57628;BME280;43451;49.060;10.616;2023-02-28T09:08:56;97473.34;;;0.03;77.54
57628;BME280;43451;49.060;10.616;2023-02-28T09:11:23;97469.66;;;0.13;76.13
57628;BME280;43451;49.060;10.616;2023-02-28T09:13:49;97473.81;;;0.28;75.83
57628;BME280;43451;49.060;10.616;2023-02-28T09:16:16;97475.94;;;0.39;76.35
57628;BME280;43451;49.060;10.616;2023-02-28T09:18:43;97469.84;;;0.47;74.31
57628;BME280;43451;49.060;10.616;2023-02-28T09:21:13;97462.53;;;0.62;73.42
57628;BME280;43451;49.060;10.616;2023-02-28T09:23:40;97473.16;;;0.53;73.02
57628;BME280;43451;49.060;10.616;2023-02-28T09:26:07;97467.75;;;0.67;73.18
57628;BME280;43451;49.060;10.616;2023-02-28T09:28:32;97473.28;;;0.79;70.93
57628;BME280;43451;49.060;10.616;2023-02-28T09:30:58;97471.88;;;0.73;69.36
57628;BME280;43451;49.060;10.616;2023-02-28T09:33:24;97467.47;;;0.77;71.82
57628;BME280;43451;49.060;10.616;2023-02-28T09:35:51;97467.69;;;0.89;71.22
57628;BME280;43451;49.060;10.616;2023-02-28T09:38:22;97472.41;;;1.01;68.17
57628;BME280;43451;49.060;10.616;2023-02-28T09:40:53;97472.56;;;0.96;67.60
57628;BME280;43451;49.060;10.616;2023-02-28T09:43:22;97465.19;;;1.02;67.40
57628;BME280;43451;49.060;10.616;2023-02-28T09:48:44;97468.66;;;1.11;67.33
57628;BME280;43451;49.060;10.616;2023-02-28T09:53:42;97466.03;;;1.20;66.61
57628;BME280;43451;49.060;10.616;2023-02-28T09:56:11;97464.31;;;1.32;67.05
57628;BME280;43451;49.060;10.616;2023-02-28T09:58:46;97467.16;;;1.27;67.48
57628;BME280;43451;49.060;10.616;2023-02-28T10:06:51;97468.72;;;1.46;65.13
57628;BME280;43451;49.060;10.616;2023-02-28T10:09:28;97475.06;;;1.50;66.38
57628;BME280;43451;49.060;10.616;2023-02-28T10:12:01;97473.50;;;1.66;66.33
57628;BME280;43451;49.060;10.616;2023-02-28T10:14:30;97465.78;;;1.73;65.91
57628;BME280;43451;49.060;10.616;2023-02-28T10:17:01;97473.03;;;1.73;64.12
57628;BME280;43451;49.060;10.616;2023-02-28T10:26:56;97469.56;;;1.98;65.66
57628;BME280;43451;49.060;10.616;2023-02-28T10:29:25;97479.94;;;2.17;64.79
57628;BME280;43451;49.060;10.616;2023-02-28T10:31:51;97481.50;;;2.27;63.09
57628;BME280;43451;49.060;10.616;2023-02-28T10:34:17;97483.56;;;2.21;65.08
57628;BME280;43451;49.060;10.616;2023-02-28T10:36:42;97482.91;;;2.24;63.12
57628;BME280;43451;49.060;10.616;2023-02-28T10:39:38;97478.34;;;2.33;62.70
57628;BME280;43451;49.060;10.616;2023-02-28T10:42:04;97481.78;;;2.43;62.24
57628;BME280;43451;49.060;10.616;2023-02-28T10:44:30;97480.53;;;2.40;63.34
57628;BME280;43451;49.060;10.616;2023-02-28T10:46:56;97480.41;;;2.19;62.45
57628;BME280;43451;49.060;10.616;2023-02-28T10:49:28;97485.88;;;2.40;66.96
57628;BME280;43451;49.060;10.616;2023-02-28T10:51:57;97482.41;;;2.57;65.32
57628;BME280;43451;49.060;10.616;2023-02-28T10:54:32;97481.56;;;2.65;63.51
57628;BME280;43451;49.060;10.616;2023-02-28T10:57:19;97479.22;;;2.64;61.95
57628;BME280;43451;49.060;10.616;2023-02-28T10:59:46;97472.22;;;2.80;62.08
57628;BME280;43451;49.060;10.616;2023-02-28T11:02:42;97492.41;;;2.86;62.23
57628;BME280;43451;49.060;10.616;2023-02-28T11:05:45;97487.03;;;2.86;61.48
57628;BME280;43451;49.060;10.616;2023-02-28T11:08:16;97491.75;;;2.89;61.49
57628;BME280;43451;49.060;10.616;2023-02-28T11:10:55;97490.63;;;2.90;61.29
57628;BME280;43451;49.060;10.616;2023-02-28T11:13:32;97488.28;;;2.89;60.94
57628;BME280;43451;49.060;10.616;2023-02-28T11:16:02;97490.06;;;2.76;61.16
57628;BME280;43451;49.060;10.616;2023-02-28T11:21:02;97484.66;;;2.29;62.93
57628;BME280;43451;49.060;10.616;2023-02-28T11:23:30;97488.72;;;2.44;62.80
57628;BME280;43451;49.060;10.616;2023-02-28T11:25:59;97479.00;;;2.77;63.41
57628;BME280;43451;49.060;10.616;2023-02-28T11:29:03;97482.19;;;3.09;62.29
57628;BME280;43451;49.060;10.616;2023-02-28T11:31:33;97481.91;;;3.32;61.38
57628;BME280;43451;49.060;10.616;2023-02-28T11:33:59;97479.84;;;3.58;61.31
57628;BME280;43451;49.060;10.616;2023-02-28T11:36:30;97475.84;;;3.64;60.57
57628;BME280;43451;49.060;10.616;2023-02-28T11:39:00;97474.03;;;3.56;60.13
57628;BME280;43451;49.060;10.616;2023-02-28T11:44:54;97479.13;;;3.70;60.89
57628;BME280;43451;49.060;10.616;2023-02-28T11:50:33;97469.03;;;3.88;58.01
57628;BME280;43451;49.060;10.616;2023-02-28T11:56:32;97468.56;;;3.86;56.65
57628;BME280;43451;49.060;10.616;2023-02-28T12:02:05;97466.34;;;3.88;58.10
57628;BME280;43451;49.060;10.616;2023-02-28T12:07:32;97458.84;;;4.14;56.17
57628;BME280;43451;49.060;10.616;2023-02-28T12:12:46;97464.22;;;4.14;57.99
57628;BME280;43451;49.060;10.616;2023-02-28T12:15:23;97450.41;;;3.83;58.11
57628;BME280;43451;49.060;10.616;2023-02-28T12:26:41;97462.69;;;4.26;57.36
57628;BME280;43451;49.060;10.616;2023-02-28T12:29:43;97465.13;;;4.18;56.68
57628;BME280;43451;49.060;10.616;2023-02-28T12:33:12;97452.41;;;4.40;57.76
57628;BME280;43451;49.060;10.616;2023-02-28T12:42:40;97450.69;;;4.69;56.21
57628;BME280;43451;49.060;10.616;2023-02-28T12:45:20;97453.56;;;4.51;55.22
57628;BME280;43451;49.060;10.616;2023-02-28T12:47:52;97459.31;;;4.62;56.27
57628;BME280;43451;49.060;10.616;2023-02-28T12:50:21;97441.91;;;4.59;56.92
57628;BME280;43451;49.060;10.616;2023-02-28T12:52:51;97443.63;;;4.64;55.13
57628;BME280;43451;49.060;10.616;2023-02-28T12:55:33;97446.75;;;4.66;57.55
57628;BME280;43451;49.060;10.616;2023-02-28T13:09:10;97431.88;;;4.93;56.23
57628;BME280;43451;49.060;10.616;2023-02-28T13:11:48;97432.22;;;4.92;56.46
57628;BME280;43451;49.060;10.616;2023-02-28T13:14:26;97429.16;;;4.93;55.69
57628;BME280;43451;49.060;10.616;2023-02-28T13:19:25;97429.81;;;4.65;56.06
57628;BME280;43451;49.060;10.616;2023-02-28T13:21:52;97435.31;;;4.57;53.91
57628;BME280;43451;49.060;10.616;2023-02-28T13:24:46;97436.06;;;4.45;54.27
57628;BME280;43451;49.060;10.616;2023-02-28T13:29:42;97418.47;;;4.35;54.87
57628;BME280;43451;49.060;10.616;2023-02-28T13:39:47;97426.59;;;4.60;54.56
57628;BME280;43451;49.060;10.616;2023-02-28T13:42:36;97423.75;;;4.69;54.27
57628;BME280;43451;49.060;10.616;2023-02-28T13:47:41;97429.13;;;4.56;54.44
57628;BME280;43451;49.060;10.616;2023-02-28T13:58:55;97417.69;;;4.59;55.89
57628;BME280;43451;49.060;10.616;2023-02-28T14:01:57;97416.81;;;4.68;53.60
57628;BME280;43451;49.060;10.616;2023-02-28T14:04:50;97421.31;;;4.63;53.99
57628;BME280;43451;49.060;10.616;2023-02-28T14:07:26;97421.06;;;4.44;53.70
57628;BME280;43451;49.060;10.616;2023-02-28T14:09:58;97419.16;;;4.45;54.41
57628;BME280;43451;49.060;10.616;2023-02-28T14:15:47;97413.09;;;4.48;54.42
57628;BME280;43451;49.060;10.616;2023-02-28T14:18:21;97414.78;;;4.52;54.15
57628;BME280;43451;49.060;10.616;2023-02-28T14:20:48;97412.00;;;4.61;56.98
57628;BME280;43451;49.060;10.616;2023-02-28T14:31:28;97398.22;;;4.75;54.29
57628;BME280;43451;49.060;10.616;2023-02-28T14:34:05;97408.75;;;4.80;53.96
57628;BME280;43451;49.060;10.616;2023-02-28T14:36:42;97409.75;;;4.87;54.52
57628;BME280;43451;49.060;10.616;2023-02-28T14:39:21;97406.97;;;4.84;53.03
57628;BME280;43451;49.060;10.616;2023-02-28T14:41:47;97404.59;;;4.70;52.92
57628;BME280;43451;49.060;10.616;2023-02-28T14:46:49;97408.28;;;4.65;54.49
57628;BME280;43451;49.060;10.616;2023-02-28T14:52:23;97402.91;;;4.78;53.94
57628;BME280;43451;49.060;10.616;2023-02-28T14:55:17;97411.00;;;4.90;54.33
57628;BME280;43451;49.060;10.616;2023-02-28T14:57:52;97405.03;;;4.84;54.38
57628;BME280;43451;49.060;10.616;2023-02-28T15:00:28;97414.94;;;4.93;54.21
57628;BME280;43451;49.060;10.616;2023-02-28T15:02:55;97410.53;;;5.00;54.21
57628;BME280;43451;49.060;10.616;2023-02-28T15:08:04;97418.19;;;4.86;53.29
57628;BME280;43451;49.060;10.616;2023-02-28T15:10:31;97423.88;;;4.84;54.50
57628;BME280;43451;49.060;10.616;2023-02-28T15:13:11;97413.22;;;4.88;54.02
57628;BME280;43451;49.060;10.616;2023-02-28T15:15:57;97415.03;;;4.72;53.96
57628;BME280;43451;49.060;10.616;2023-02-28T15:21:04;97413.22;;;4.51;54.47
57628;BME280;43451;49.060;10.616;2023-02-28T15:23:31;97414.44;;;4.41;55.63
57628;BME280;43451;49.060;10.616;2023-02-28T15:26:01;97416.34;;;4.41;54.08
57628;BME280;43451;49.060;10.616;2023-02-28T15:28:27;97426.88;;;4.46;54.78
57628;BME280;43451;49.060;10.616;2023-02-28T15:30:59;97421.69;;;4.29;55.85
57628;BME280;43451;49.060;10.616;2023-02-28T15:33:28;97422.41;;;4.38;56.35